sensor_id;sensor_type;location;lat;lon;timestamp;pressure;altitude;pressure_sealevel;temperature;humidity
15678;BME280;7939;50.814;6.368;2022-12-18T00:00:05;101021.59;;;2.98;55.24
15678;BME280;7939;50.814;6.368;2022-12-18T00:02:32;101019.13;;;3.00;55.10
15678;BME280;7939;50.814;6.368;2022-12-18T00:04:58;101020.00;;;3.01;55.11
15678;BME280;7939;50.814;6.368;2022-12-18T00:07:25;101022.47;;;2.99;54.82
15678;BME280;7939;50.814;6.368;2022-12-18T00:09:53;101020.00;;;3.01;55.02
15678;BME280;7939;50.814;6.368;2022-12-18T00:12:19;101014.94;;;3.01;55.01
15678;BME280;7939;50.814;6.368;2022-12-18T00:14:46;101020.81;;;3.00;54.60
15678;BME280;7939;50.814;6.368;2022-12-18T00:17:12;101019.22;;;3.02;55.08
15678;BME280;7939;50.814;6.368;2022-12-18T00:19:39;101016.47;;;2.97;54.67
15678;BME280;7939;50.814;6.368;2022-12-18T00:22:05;101016.53;;;2.98;54.87
15678;BME280;7939;50.814;6.368;2022-12-18T00:24:32;101016.31;;;2.94;54.87
15678;BME280;7939;50.814;6.368;2022-12-18T00:27:00;101020.56;;;2.95;54.51
15678;BME280;7939;50.814;6.368;2022-12-18T00:29:26;101028.25;;;2.96;54.87
15678;BME280;7939;50.814;6.368;2022-12-18T00:31:53;101032.25;;;2.93;54.70
15678;BME280;7939;50.814;6.368;2022-12-18T00:34:19;101034.78;;;2.93;54.80
15678;BME280;7939;50.814;6.368;2022-12-18T00:36:47;101037.38;;;2.94;54.89
15678;BME280;7939;50.814;6.368;2022-12-18T00:39:14;101024.69;;;2.93;54.18
15678;BME280;7939;50.814;6.368;2022-12-18T00:41:40;101025.47;;;2.92;54.42
15678;BME280;7939;50.814;6.368;2022-12-18T00:44:26;101024.59;;;2.91;54.82
15678;BME280;7939;50.814;6.368;2022-12-18T00:46:52;101016.97;;;2.90;54.55
15678;BME280;7939;50.814;6.368;2022-12-18T00:49:19;101016.88;;;2.88;54.21
15678;BME280;7939;50.814;6.368;2022-12-18T00:51:47;101014.50;;;2.91;54.86
15678;BME280;7939;50.814;6.368;2022-12-18T00:54:14;101018.75;;;2.92;54.37
15678;BME280;7939;50.814;6.368;2022-12-18T00:56:41;101021.22;;;2.91;54.90
15678;BME280;7939;50.814;6.368;2022-12-18T00:59:07;101021.03;;;2.88;54.42
15678;BME280;7939;50.814;6.368;2022-12-18T01:01:35;101019.50;;;2.90;54.18
15678;BME280;7939;50.814;6.368;2022-12-18T01:04:02;101013.34;;;2.85;55.02
15678;BME280;7939;50.814;6.368;2022-12-18T01:06:30;100995.81;;;2.88;54.26
15678;BME280;7939;50.814;6.368;2022-12-18T01:08:56;101005.91;;;2.88;54.20
15678;BME280;7939;50.814;6.368;2022-12-18T01:11:23;101014.50;;;2.91;54.59
15678;BME280;7939;50.814;6.368;2022-12-18T01:13:51;101012.78;;;2.90;54.54
15678;BME280;7939;50.814;6.368;2022-12-18T01:16:18;101018.53;;;2.88;54.67
15678;BME280;7939;50.814;6.368;2022-12-18T01:18:46;101013.47;;;2.88;54.19
15678;BME280;7939;50.814;6.368;2022-12-18T01:21:15;101020.09;;;2.86;54.14
15678;BME280;7939;50.814;6.368;2022-12-18T01:23:42;101008.28;;;2.85;54.22
15678;BME280;7939;50.814;6.368;2022-12-18T01:26:13;101006.38;;;2.81;54.23
15678;BME280;7939;50.814;6.368;2022-12-18T01:28:40;101007.25;;;2.81;53.69
15678;BME280;7939;50.814;6.368;2022-12-18T01:31:11;101009.63;;;2.78;53.69
15678;BME280;7939;50.814;6.368;2022-12-18T01:33:38;101011.19;;;2.76;54.56
15678;BME280;7939;50.814;6.368;2022-12-18T01:36:07;101006.25;;;2.78;54.03
15678;BME280;7939;50.814;6.368;2022-12-18T01:38:33;100996.16;;;2.78;54.01
15678;BME280;7939;50.814;6.368;2022-12-18T01:41:01;100996.84;;;2.75;54.26
15678;BME280;7939;50.814;6.368;2022-12-18T01:43:42;101005.06;;;2.71;53.98
15678;BME280;7939;50.814;6.368;2022-12-18T01:46:09;100997.56;;;2.73;53.70
15678;BME280;7939;50.814;6.368;2022-12-18T01:48:36;100995.13;;;2.74;53.87
15678;BME280;7939;50.814;6.368;2022-12-18T01:51:04;100997.38;;;2.69;53.76
15678;BME280;7939;50.814;6.368;2022-12-18T01:53:32;101008.13;;;2.65;54.15
15678;BME280;7939;50.814;6.368;2022-12-18T01:55:59;101006.56;;;2.67;53.69
15678;BME280;7939;50.814;6.368;2022-12-18T01:58:32;101007.41;;;2.68;53.80
15678;BME280;7939;50.814;6.368;2022-12-18T02:01:01;101007.41;;;2.68;53.49
15678;BME280;7939;50.814;6.368;2022-12-18T02:03:28;101003.09;;;2.65;53.72
15678;BME280;7939;50.814;6.368;2022-12-18T02:05:58;101003.09;;;2.65;53.69
15678;BME280;7939;50.814;6.368;2022-12-18T02:08:33;101003.88;;;2.64;54.16
15678;BME280;7939;50.814;6.368;2022-12-18T02:11:05;101004.75;;;2.65;53.30
15678;BME280;7939;50.814;6.368;2022-12-18T02:13:40;101007.28;;;2.65;53.60
15678;BME280;7939;50.814;6.368;2022-12-18T02:16:16;101004.75;;;2.65;53.88
15678;BME280;7939;50.814;6.368;2022-12-18T02:18:48;100993.53;;;2.60;53.87
15678;BME280;7939;50.814;6.368;2022-12-18T02:21:27;100986.66;;;2.57;53.25
15678;BME280;7939;50.814;6.368;2022-12-18T02:24:08;100988.19;;;2.54;53.96
15678;BME280;7939;50.814;6.368;2022-12-18T02:26:44;100982.09;;;2.50;53.68
15678;BME280;7939;50.814;6.368;2022-12-18T02:29:15;100983.94;;;2.53;53.42
15678;BME280;7939;50.814;6.368;2022-12-18T02:31:46;100984.63;;;2.50;53.87
15678;BME280;7939;50.814;6.368;2022-12-18T02:34:15;100985.66;;;2.54;53.56
15678;BME280;7939;50.814;6.368;2022-12-18T02:36:43;100975.25;;;2.48;54.16
15678;BME280;7939;50.814;6.368;2022-12-18T02:39:13;100973.53;;;2.47;54.14
15678;BME280;7939;50.814;6.368;2022-12-18T02:41:42;100973.66;;;2.50;54.24
15678;BME280;7939;50.814;6.368;2022-12-18T02:44:11;100981.16;;;2.48;53.79
15678;BME280;7939;50.814;6.368;2022-12-18T02:46:41;100985.09;;;2.43;53.50
15678;BME280;7939;50.814;6.368;2022-12-18T02:49:24;100986.69;;;2.41;53.94
15678;BME280;7939;50.814;6.368;2022-12-18T02:51:55;100987.47;;;2.40;53.95
15678;BME280;7939;50.814;6.368;2022-12-18T02:54:36;100985.03;;;2.41;54.29
15678;BME280;7939;50.814;6.368;2022-12-18T02:57:13;100983.28;;;2.40;54.41
15678;BME280;7939;50.814;6.368;2022-12-18T02:59:49;100978.63;;;2.32;54.31
15678;BME280;7939;50.814;6.368;2022-12-18T03:02:22;100986.44;;;2.36;53.98
15678;BME280;7939;50.814;6.368;2022-12-18T03:04:56;100979.81;;;2.38;54.27
15678;BME280;7939;50.814;6.368;2022-12-18T03:07:33;100976.28;;;2.35;54.09
15678;BME280;7939;50.814;6.368;2022-12-18T03:10:01;100979.72;;;2.37;54.22
15678;BME280;7939;50.814;6.368;2022-12-18T03:12:31;100983.13;;;2.37;54.19
15678;BME280;7939;50.814;6.368;2022-12-18T03:15:02;100970.50;;;2.37;53.99
15678;BME280;7939;50.814;6.368;2022-12-18T03:17:31;100966.13;;;2.33;54.32
15678;BME280;7939;50.814;6.368;2022-12-18T03:20:02;100958.56;;;2.33;54.05
15678;BME280;7939;50.814;6.368;2022-12-18T03:22:30;100956.09;;;2.35;54.46
15678;BME280;7939;50.814;6.368;2022-12-18T03:25:01;100956.88;;;2.34;53.98
15678;BME280;7939;50.814;6.368;2022-12-18T03:27:31;100954.25;;;2.32;54.13
15678;BME280;7939;50.814;6.368;2022-12-18T03:30:02;100959.16;;;2.29;54.43
15678;BME280;7939;50.814;6.368;2022-12-18T03:32:39;100959.13;;;2.13;53.39
15678;BME280;7939;50.814;6.368;2022-12-18T03:35:09;100959.78;;;2.09;54.01
15678;BME280;7939;50.814;6.368;2022-12-18T03:37:37;100954.56;;;2.06;53.07
15678;BME280;7939;50.814;6.368;2022-12-18T03:40:05;100954.00;;;1.95;52.95
15678;BME280;7939;50.814;6.368;2022-12-18T03:42:40;100948.97;;;2.11;54.25
15678;BME280;7939;50.814;6.368;2022-12-18T03:45:12;100948.63;;;2.20;54.11
15678;BME280;7939;50.814;6.368;2022-12-18T03:47:52;100944.59;;;2.24;54.15
15678;BME280;7939;50.814;6.368;2022-12-18T03:50:22;100941.66;;;2.16;53.84
15678;BME280;7939;50.814;6.368;2022-12-18T03:52:53;100942.78;;;2.21;53.46
15678;BME280;7939;50.814;6.368;2022-12-18T03:55:24;100947.91;;;2.23;54.14
15678;BME280;7939;50.814;6.368;2022-12-18T03:57:54;100935.22;;;2.21;53.66
15678;BME280;7939;50.814;6.368;2022-12-18T04:00:21;100929.38;;;2.22;54.09
15678;BME280;7939;50.814;6.368;2022-12-18T04:02:51;100939.38;;;2.21;53.94
15678;BME280;7939;50.814;6.368;2022-12-18T04:05:20;100934.97;;;2.16;53.78
15678;BME280;7939;50.814;6.368;2022-12-18T04:07:49;100931.88;;;2.06;53.13
15678;BME280;7939;50.814;6.368;2022-12-18T04:10:18;100933.38;;;2.02;53.83
15678;BME280;7939;50.814;6.368;2022-12-18T04:12:44;100932.00;;;1.93;53.50
15678;BME280;7939;50.814;6.368;2022-12-18T04:15:13;100932.47;;;1.85;52.98
15678;BME280;7939;50.814;6.368;2022-12-18T04:17:47;100929.03;;;1.83;53.41
15678;BME280;7939;50.814;6.368;2022-12-18T04:20:15;100921.22;;;1.79;53.28
15678;BME280;7939;50.814;6.368;2022-12-18T04:22:42;100921.66;;;1.72;52.59
15678;BME280;7939;50.814;6.368;2022-12-18T04:25:12;100911.19;;;1.80;53.52
15678;BME280;7939;50.814;6.368;2022-12-18T04:27:39;100907.88;;;1.81;53.22
15678;BME280;7939;50.814;6.368;2022-12-18T04:30:07;100915.84;;;1.73;53.05
15678;BME280;7939;50.814;6.368;2022-12-18T04:32:35;100919.16;;;1.72;53.10
15678;BME280;7939;50.814;6.368;2022-12-18T04:35:02;100917.50;;;1.72;53.28
15678;BME280;7939;50.814;6.368;2022-12-18T04:37:32;100913.94;;;1.69;53.15
15678;BME280;7939;50.814;6.368;2022-12-18T04:39:58;100919.31;;;1.75;53.47
15678;BME280;7939;50.814;6.368;2022-12-18T04:42:25;100909.66;;;1.82;53.98
15678;BME280;7939;50.814;6.368;2022-12-18T04:44:51;100899.56;;;1.82;53.26
15678;BME280;7939;50.814;6.368;2022-12-18T04:47:18;100893.09;;;1.87;53.61
15678;BME280;7939;50.814;6.368;2022-12-18T04:49:46;100885.47;;;1.86;53.59
15678;BME280;7939;50.814;6.368;2022-12-18T04:52:13;100889.72;;;1.87;53.52
15678;BME280;7939;50.814;6.368;2022-12-18T04:54:39;100870.28;;;1.84;53.36
15678;BME280;7939;50.814;6.368;2022-12-18T04:57:06;100877.03;;;1.85;54.12
15678;BME280;7939;50.814;6.368;2022-12-18T04:59:32;100874.75;;;1.90;53.89
15678;BME280;7939;50.814;6.368;2022-12-18T05:01:59;100880.75;;;1.92;54.28
15678;BME280;7939;50.814;6.368;2022-12-18T05:04:26;100885.84;;;1.94;54.07
15678;BME280;7939;50.814;6.368;2022-12-18T05:06:54;100888.31;;;1.92;53.48
15678;BME280;7939;50.814;6.368;2022-12-18T05:09:21;100888.22;;;1.91;54.09
15678;BME280;7939;50.814;6.368;2022-12-18T05:11:47;100898.47;;;1.94;54.15
15678;BME280;7939;50.814;6.368;2022-12-18T05:14:14;100905.41;;;1.98;53.47
15678;BME280;7939;50.814;6.368;2022-12-18T05:16:41;100908.66;;;1.95;53.44
15678;BME280;7939;50.814;6.368;2022-12-18T05:19:08;100919.66;;;1.97;54.05
15678;BME280;7939;50.814;6.368;2022-12-18T05:21:34;100920.59;;;1.99;53.13
15678;BME280;7939;50.814;6.368;2022-12-18T05:24:03;100921.41;;;1.98;53.79
15678;BME280;7939;50.814;6.368;2022-12-18T05:26:31;100933.19;;;1.99;53.93
15678;BME280;7939;50.814;6.368;2022-12-18T05:28:57;100941.41;;;1.95;53.11
15678;BME280;7939;50.814;6.368;2022-12-18T05:31:24;100957.28;;;1.94;53.29
15678;BME280;7939;50.814;6.368;2022-12-18T05:33:51;100958.47;;;2.01;53.63
15678;BME280;7939;50.814;6.368;2022-12-18T05:36:17;100959.38;;;2.01;53.29
15678;BME280;7939;50.814;6.368;2022-12-18T05:38:44;100951.03;;;2.02;53.76
15678;BME280;7939;50.814;6.368;2022-12-18T05:41:12;100957.00;;;2.04;52.94
15678;BME280;7939;50.814;6.368;2022-12-18T05:43:40;100971.28;;;2.04;53.53
15678;BME280;7939;50.814;6.368;2022-12-18T05:46:09;100973.78;;;2.04;53.11
15678;BME280;7939;50.814;6.368;2022-12-18T05:48:38;100978.84;;;2.04;53.08
15678;BME280;7939;50.814;6.368;2022-12-18T05:51:06;100975.44;;;2.03;53.65
15678;BME280;7939;50.814;6.368;2022-12-18T05:53:33;100981.34;;;2.04;53.16
15678;BME280;7939;50.814;6.368;2022-12-18T05:56:01;100972.84;;;2.02;53.02
15678;BME280;7939;50.814;6.368;2022-12-18T05:58:30;100963.53;;;2.01;53.12
15678;BME280;7939;50.814;6.368;2022-12-18T06:00:57;100967.81;;;2.02;53.42
15678;BME280;7939;50.814;6.368;2022-12-18T06:03:24;100963.44;;;1.99;53.48
15678;BME280;7939;50.814;6.368;2022-12-18T06:05:51;100957.63;;;2.00;53.08
15678;BME280;7939;50.814;6.368;2022-12-18T06:08:18;100962.50;;;1.97;53.44
15678;BME280;7939;50.814;6.368;2022-12-18T06:10:50;100970.75;;;1.95;53.40
15678;BME280;7939;50.814;6.368;2022-12-18T06:13:17;100968.50;;;1.99;53.79
15678;BME280;7939;50.814;6.368;2022-12-18T06:15:45;100961.47;;;1.94;53.36
15678;BME280;7939;50.814;6.368;2022-12-18T06:18:12;100945.00;;;1.84;53.46
15678;BME280;7939;50.814;6.368;2022-12-18T06:20:39;100956.63;;;1.82;53.10
15678;BME280;7939;50.814;6.368;2022-12-18T06:23:06;100951.06;;;1.87;53.14
15678;BME280;7939;50.814;6.368;2022-12-18T06:25:33;100957.22;;;1.93;53.26
15678;BME280;7939;50.814;6.368;2022-12-18T06:27:59;100946.28;;;1.92;52.91
15678;BME280;7939;50.814;6.368;2022-12-18T06:30:26;100931.16;;;1.92;52.70
15678;BME280;7939;50.814;6.368;2022-12-18T06:32:54;100923.88;;;1.82;53.01
15678;BME280;7939;50.814;6.368;2022-12-18T06:35:20;100922.16;;;1.81;53.61
15678;BME280;7939;50.814;6.368;2022-12-18T06:37:47;100933.28;;;1.84;53.37
15678;BME280;7939;50.814;6.368;2022-12-18T06:40:14;100940.56;;;1.80;53.22
15678;BME280;7939;50.814;6.368;2022-12-18T06:42:40;100933.00;;;1.80;53.44
15678;BME280;7939;50.814;6.368;2022-12-18T06:45:08;100919.31;;;1.75;53.08
15678;BME280;7939;50.814;6.368;2022-12-18T06:47:34;100919.59;;;1.65;53.03
15678;BME280;7939;50.814;6.368;2022-12-18T06:50:03;100921.53;;;1.54;53.37
15678;BME280;7939;50.814;6.368;2022-12-18T06:52:31;100929.63;;;1.48;52.81
15678;BME280;7939;50.814;6.368;2022-12-18T06:54:57;100932.19;;;1.33;52.54
15678;BME280;7939;50.814;6.368;2022-12-18T06:57:24;100930.66;;;1.52;53.19
15678;BME280;7939;50.814;6.368;2022-12-18T06:59:51;100922.31;;;1.53;53.02
15678;BME280;7939;50.814;6.368;2022-12-18T07:02:17;100938.91;;;1.64;53.42
15678;BME280;7939;50.814;6.368;2022-12-18T07:04:44;100940.00;;;1.69;52.95
15678;BME280;7939;50.814;6.368;2022-12-18T07:07:12;100939.38;;;1.73;52.64
15678;BME280;7939;50.814;6.368;2022-12-18T07:09:38;100942.75;;;1.74;52.92
15678;BME280;7939;50.814;6.368;2022-12-18T07:12:05;100937.81;;;1.75;52.77
15678;BME280;7939;50.814;6.368;2022-12-18T07:14:33;100936.16;;;1.76;53.01
15678;BME280;7939;50.814;6.368;2022-12-18T07:16:59;100934.59;;;1.78;52.37
15678;BME280;7939;50.814;6.368;2022-12-18T07:19:26;100934.66;;;1.79;52.93
15678;BME280;7939;50.814;6.368;2022-12-18T07:21:52;100927.19;;;1.81;52.51
15678;BME280;7939;50.814;6.368;2022-12-18T07:24:20;100934.75;;;1.81;52.77
15678;BME280;7939;50.814;6.368;2022-12-18T07:26:47;100925.47;;;1.80;52.82
15678;BME280;7939;50.814;6.368;2022-12-18T07:29:14;100933.00;;;1.80;52.36
15678;BME280;7939;50.814;6.368;2022-12-18T07:31:40;100925.13;;;1.74;52.40
15678;BME280;7939;50.814;6.368;2022-12-18T07:34:10;100930.25;;;1.75;52.66
15678;BME280;7939;50.814;6.368;2022-12-18T07:36:36;100933.16;;;1.67;53.08
15678;BME280;7939;50.814;6.368;2022-12-18T07:39:03;100920.66;;;1.53;52.08
15678;BME280;7939;50.814;6.368;2022-12-18T07:41:31;100925.19;;;1.44;52.57
15678;BME280;7939;50.814;6.368;2022-12-18T07:43:57;100917.03;;;1.48;53.17
15678;BME280;7939;50.814;6.368;2022-12-18T07:46:24;100914.06;;;1.55;53.18
15678;BME280;7939;50.814;6.368;2022-12-18T07:48:51;100907.63;;;1.60;53.31
15678;BME280;7939;50.814;6.368;2022-12-18T07:51:18;100898.47;;;1.62;53.10
15678;BME280;7939;50.814;6.368;2022-12-18T07:53:44;100890.25;;;1.65;52.75
15678;BME280;7939;50.814;6.368;2022-12-18T07:56:12;100888.66;;;1.67;52.56
15678;BME280;7939;50.814;6.368;2022-12-18T07:58:40;100884.34;;;1.65;52.87
15678;BME280;7939;50.814;6.368;2022-12-18T08:01:09;100880.28;;;1.52;52.08
15678;BME280;7939;50.814;6.368;2022-12-18T08:03:36;100868.91;;;1.58;52.66
15678;BME280;7939;50.814;6.368;2022-12-18T08:06:05;100867.06;;;1.56;52.43
15678;BME280;7939;50.814;6.368;2022-12-18T08:08:33;100859.84;;;1.62;53.26
15678;BME280;7939;50.814;6.368;2022-12-18T08:11:00;100860.16;;;1.68;53.14
15678;BME280;7939;50.814;6.368;2022-12-18T08:13:27;100854.91;;;1.64;52.76
15678;BME280;7939;50.814;6.368;2022-12-18T08:15:59;100847.41;;;1.65;53.33
15678;BME280;7939;50.814;6.368;2022-12-18T08:18:26;100852.38;;;1.64;53.00
15678;BME280;7939;50.814;6.368;2022-12-18T08:20:53;100850.09;;;1.68;52.83
15678;BME280;7939;50.814;6.368;2022-12-18T08:23:20;100839.84;;;1.65;52.83
15678;BME280;7939;50.814;6.368;2022-12-18T08:25:47;100836.75;;;1.54;52.63
15678;BME280;7939;50.814;6.368;2022-12-18T08:28:16;100843.19;;;1.49;52.50
15678;BME280;7939;50.814;6.368;2022-12-18T08:30:43;100848.69;;;1.42;52.87
15678;BME280;7939;50.814;6.368;2022-12-18T08:33:11;100846.38;;;1.45;52.64
15678;BME280;7939;50.814;6.368;2022-12-18T08:35:38;100844.03;;;1.33;52.71
15678;BME280;7939;50.814;6.368;2022-12-18T08:38:04;100838.16;;;1.33;52.53
15678;BME280;7939;50.814;6.368;2022-12-18T08:40:31;100836.50;;;1.33;52.66
15678;BME280;7939;50.814;6.368;2022-12-18T08:42:57;100840.56;;;1.31;52.51
15678;BME280;7939;50.814;6.368;2022-12-18T08:45:42;100837.88;;;1.28;52.93
15678;BME280;7939;50.814;6.368;2022-12-18T08:48:09;100843.78;;;1.29;52.97
15678;BME280;7939;50.814;6.368;2022-12-18T08:50:37;100833.25;;;1.20;53.17
15678;BME280;7939;50.814;6.368;2022-12-18T08:53:04;100826.81;;;1.10;53.36
15678;BME280;7939;50.814;6.368;2022-12-18T08:55:30;100827.88;;;1.14;53.87
15678;BME280;7939;50.814;6.368;2022-12-18T08:57:57;100820.09;;;1.25;53.36
15678;BME280;7939;50.814;6.368;2022-12-18T09:00:24;100822.84;;;1.30;53.44
15678;BME280;7939;50.814;6.368;2022-12-18T09:02:50;100824.38;;;1.43;53.83
15678;BME280;7939;50.814;6.368;2022-12-18T09:05:17;100826.28;;;1.47;53.71
15678;BME280;7939;50.814;6.368;2022-12-18T09:07:45;100825.97;;;1.41;53.74
15678;BME280;7939;50.814;6.368;2022-12-18T09:10:11;100815.97;;;1.42;54.01
15678;BME280;7939;50.814;6.368;2022-12-18T09:12:38;100812.13;;;1.49;54.25
15678;BME280;7939;50.814;6.368;2022-12-18T09:15:05;100802.13;;;1.50;54.16
15678;BME280;7939;50.814;6.368;2022-12-18T09:17:32;100789.69;;;1.53;54.28
15678;BME280;7939;50.814;6.368;2022-12-18T09:19:59;100789.94;;;1.58;53.97
15678;BME280;7939;50.814;6.368;2022-12-18T09:22:25;100789.84;;;1.56;53.94
15678;BME280;7939;50.814;6.368;2022-12-18T09:24:53;100789.28;;;1.62;54.35
15678;BME280;7939;50.814;6.368;2022-12-18T09:27:20;100787.63;;;1.62;53.93
15678;BME280;7939;50.814;6.368;2022-12-18T09:29:46;100786.31;;;1.69;54.03
15678;BME280;7939;50.814;6.368;2022-12-18T09:32:13;100792.38;;;1.73;54.04
15678;BME280;7939;50.814;6.368;2022-12-18T09:34:39;100795.53;;;1.69;54.42
15678;BME280;7939;50.814;6.368;2022-12-18T09:37:06;100802.47;;;1.73;54.18
15678;BME280;7939;50.814;6.368;2022-12-18T09:39:35;100793.66;;;1.65;54.09
15678;BME280;7939;50.814;6.368;2022-12-18T09:42:04;100789.22;;;1.60;53.54
15678;BME280;7939;50.814;6.368;2022-12-18T09:44:34;100797.75;;;1.79;54.48
15678;BME280;7939;50.814;6.368;2022-12-18T09:47:09;100800.25;;;1.62;54.28
15678;BME280;7939;50.814;6.368;2022-12-18T09:49:41;100793.31;;;1.75;54.01
15678;BME280;7939;50.814;6.368;2022-12-18T09:52:12;100797.75;;;1.79;54.38
15678;BME280;7939;50.814;6.368;2022-12-18T09:54:46;100789.88;;;1.73;53.90
15678;BME280;7939;50.814;6.368;2022-12-18T09:57:18;100791.75;;;1.77;54.12
15678;BME280;7939;50.814;6.368;2022-12-18T09:59:50;100793.72;;;1.66;54.42
15678;BME280;7939;50.814;6.368;2022-12-18T10:02:21;100790.47;;;1.69;54.03
15678;BME280;7939;50.814;6.368;2022-12-18T10:05:02;100785.13;;;1.62;54.77
15678;BME280;7939;50.814;6.368;2022-12-18T10:07:35;100776.63;;;1.60;54.47
15678;BME280;7939;50.814;6.368;2022-12-18T10:10:10;100772.06;;;1.53;54.28
15678;BME280;7939;50.814;6.368;2022-12-18T10:12:45;100782.53;;;1.61;54.87
15678;BME280;7939;50.814;6.368;2022-12-18T10:15:19;100785.13;;;1.62;54.74
15678;BME280;7939;50.814;6.368;2022-12-18T10:17:51;100785.63;;;1.72;54.94
15678;BME280;7939;50.814;6.368;2022-12-18T10:20:30;100773.84;;;1.88;54.83
15678;BME280;7939;50.814;6.368;2022-12-18T10:23:03;100774.97;;;1.94;54.42
15678;BME280;7939;50.814;6.368;2022-12-18T10:25:36;100778.59;;;1.99;54.74
15678;BME280;7939;50.814;6.368;2022-12-18T10:28:10;100769.38;;;1.99;54.76
15678;BME280;7939;50.814;6.368;2022-12-18T10:30:38;100761.09;;;2.02;54.67
15678;BME280;7939;50.814;6.368;2022-12-18T10:33:08;100763.84;;;2.06;54.53
15678;BME280;7939;50.814;6.368;2022-12-18T10:35:41;100759.66;;;2.07;54.43
15678;BME280;7939;50.814;6.368;2022-12-18T10:38:21;100752.75;;;2.03;54.52
15678;BME280;7939;50.814;6.368;2022-12-18T10:40:50;100754.25;;;1.99;54.51
15678;BME280;7939;50.814;6.368;2022-12-18T10:43:22;100758.34;;;1.81;55.21
15678;BME280;7939;50.814;6.368;2022-12-18T10:45:59;100763.63;;;1.85;55.15
15678;BME280;7939;50.814;6.368;2022-12-18T10:48:27;100761.44;;;1.92;55.27
15678;BME280;7939;50.814;6.368;2022-12-18T10:50:54;100758.03;;;1.91;55.44
15678;BME280;7939;50.814;6.368;2022-12-18T10:53:22;100755.75;;;1.96;55.78
15678;BME280;7939;50.814;6.368;2022-12-18T10:55:52;100753.63;;;2.03;55.75
15678;BME280;7939;50.814;6.368;2022-12-18T10:58:24;100756.28;;;2.06;55.88
15678;BME280;7939;50.814;6.368;2022-12-18T11:01:06;100754.16;;;2.14;55.58
15678;BME280;7939;50.814;6.368;2022-12-18T11:03:35;100754.91;;;2.13;55.10
15678;BME280;7939;50.814;6.368;2022-12-18T11:06:07;100753.50;;;2.18;55.28
15678;BME280;7939;50.814;6.368;2022-12-18T11:08:34;100752.44;;;2.31;55.20
15678;BME280;7939;50.814;6.368;2022-12-18T11:11:01;100745.09;;;2.35;54.99
15678;BME280;7939;50.814;6.368;2022-12-18T11:13:31;100747.06;;;2.41;54.93
15678;BME280;7939;50.814;6.368;2022-12-18T11:15:58;100743.09;;;2.46;55.44
15678;BME280;7939;50.814;6.368;2022-12-18T11:18:28;100742.59;;;2.53;54.76
15678;BME280;7939;50.814;6.368;2022-12-18T11:20:57;100735.72;;;2.51;54.85
15678;BME280;7939;50.814;6.368;2022-12-18T11:23:26;100727.41;;;2.52;55.13
15678;BME280;7939;50.814;6.368;2022-12-18T11:25:55;100725.59;;;2.49;55.27
15678;BME280;7939;50.814;6.368;2022-12-18T11:28:35;100726.91;;;2.59;55.00
15678;BME280;7939;50.814;6.368;2022-12-18T11:31:24;100717.66;;;2.59;55.01
15678;BME280;7939;50.814;6.368;2022-12-18T11:34:04;100710.28;;;2.64;55.54
15678;BME280;7939;50.814;6.368;2022-12-18T11:36:39;100707.69;;;2.62;55.44
15678;BME280;7939;50.814;6.368;2022-12-18T11:39:12;100702.16;;;2.69;54.80
15678;BME280;7939;50.814;6.368;2022-12-18T11:41:48;100697.31;;;2.74;54.72
15678;BME280;7939;50.814;6.368;2022-12-18T11:44:40;100673.91;;;2.77;55.21
15678;BME280;7939;50.814;6.368;2022-12-18T11:47:13;100689.22;;;2.81;55.63
15678;BME280;7939;50.814;6.368;2022-12-18T11:49:41;100677.28;;;2.77;54.81
15678;BME280;7939;50.814;6.368;2022-12-18T11:52:14;100685.03;;;2.82;55.73
15678;BME280;7939;50.814;6.368;2022-12-18T11:54:41;100686.91;;;2.86;55.06
15678;BME280;7939;50.814;6.368;2022-12-18T11:57:14;100683.59;;;2.87;54.94
15678;BME280;7939;50.814;6.368;2022-12-18T11:59:55;100680.22;;;2.86;54.93
15678;BME280;7939;50.814;6.368;2022-12-18T12:02:42;100680.50;;;2.92;55.34
15678;BME280;7939;50.814;6.368;2022-12-18T12:05:30;100687.19;;;2.92;54.94
15678;BME280;7939;50.814;6.368;2022-12-18T12:08:05;100687.31;;;2.95;55.23
15678;BME280;7939;50.814;6.368;2022-12-18T12:10:49;100676.63;;;3.01;55.01
15678;BME280;7939;50.814;6.368;2022-12-18T12:13:33;100674.97;;;3.01;55.50
15678;BME280;7939;50.814;6.368;2022-12-18T12:16:15;100654.88;;;3.03;55.37
15678;BME280;7939;50.814;6.368;2022-12-18T12:18:52;100655.84;;;3.06;55.00
15678;BME280;7939;50.814;6.368;2022-12-18T12:21:26;100658.53;;;3.09;55.63
15678;BME280;7939;50.814;6.368;2022-12-18T12:24:01;100653.59;;;3.12;54.93
15678;BME280;7939;50.814;6.368;2022-12-18T12:26:33;100655.31;;;3.13;55.13
15678;BME280;7939;50.814;6.368;2022-12-18T12:29:15;100651.22;;;3.15;55.14
15678;BME280;7939;50.814;6.368;2022-12-18T12:31:57;100641.97;;;3.16;54.89
15678;BME280;7939;50.814;6.368;2022-12-18T12:34:34;100642.03;;;3.17;55.16
15678;BME280;7939;50.814;6.368;2022-12-18T12:37:15;100657.25;;;3.19;55.59
15678;BME280;7939;50.814;6.368;2022-12-18T12:39:47;100653.91;;;3.20;55.63
15678;BME280;7939;50.814;6.368;2022-12-18T12:42:18;100650.69;;;3.22;55.43
15678;BME280;7939;50.814;6.368;2022-12-18T12:45:01;100655.00;;;3.25;54.89
15678;BME280;7939;50.814;6.368;2022-12-18T12:47:36;100649.03;;;3.23;55.52
15678;BME280;7939;50.814;6.368;2022-12-18T12:50:12;100640.69;;;3.25;54.93
15678;BME280;7939;50.814;6.368;2022-12-18T12:52:42;100626.41;;;3.26;55.29
15678;BME280;7939;50.814;6.368;2022-12-18T12:55:15;100622.31;;;3.28;55.09
15678;BME280;7939;50.814;6.368;2022-12-18T12:57:46;100621.56;;;3.31;55.58
15678;BME280;7939;50.814;6.368;2022-12-18T13:00:16;100619.03;;;3.31;55.56
15678;BME280;7939;50.814;6.368;2022-12-18T13:02:50;100623.22;;;3.30;55.22
15678;BME280;7939;50.814;6.368;2022-12-18T13:05:21;100620.75;;;3.32;55.63
15678;BME280;7939;50.814;6.368;2022-12-18T13:07:54;100612.38;;;3.33;55.61
15678;BME280;7939;50.814;6.368;2022-12-18T13:10:31;100606.56;;;3.34;55.50
15678;BME280;7939;50.814;6.368;2022-12-18T13:12:59;100598.88;;;3.32;55.32
15678;BME280;7939;50.814;6.368;2022-12-18T13:15:30;100591.41;;;3.34;55.56
15678;BME280;7939;50.814;6.368;2022-12-18T13:18:17;100587.00;;;3.30;55.04
15678;BME280;7939;50.814;6.368;2022-12-18T13:20:46;100590.53;;;3.33;55.86
15678;BME280;7939;50.814;6.368;2022-12-18T13:23:29;100589.59;;;3.31;55.28